createdAt,value
2018-12-17T00:00:45.036Z,21.20
2018-12-17T00:03:12.559Z,19.20
2018-12-17T00:05:41.857Z,21.07
2018-12-17T00:08:09.615Z,21.10
2018-12-17T00:10:37.115Z,21.57
2018-12-17T00:13:04.652Z,21.50
2018-12-17T00:15:32.150Z,21.60
2018-12-17T00:17:59.680Z,21.70
2018-12-17T00:20:27.181Z,21.20
2018-12-17T00:22:54.721Z,21.87
2018-12-17T00:25:22.227Z,22.80
2018-12-17T00:27:49.726Z,22.27
2018-12-17T00:30:17.254Z,23.53
2018-12-17T00:32:44.759Z,20.60
2018-12-17T00:35:12.291Z,23.27
2018-12-17T00:37:39.788Z,23.40
2018-12-17T00:40:07.967Z,20.93
2018-12-17T00:42:35.467Z,21.93
2018-12-17T00:45:03.551Z,22.40
2018-12-17T00:47:31.047Z,24.40
2018-12-17T00:49:58.571Z,24.67
2018-12-17T00:52:26.147Z,27.10
2018-12-17T00:54:53.670Z,27.20
2018-12-17T00:57:21.171Z,25.00
2018-12-17T00:59:48.694Z,26.40
2018-12-17T01:02:16.271Z,25.83
2018-12-17T01:04:43.799Z,26.10
2018-12-17T01:07:11.305Z,24.70
2018-12-17T01:09:38.835Z,25.50
2018-12-17T01:12:06.340Z,24.77
2018-12-17T01:14:33.886Z,25.60
2018-12-17T01:17:01.463Z,24.20
2018-12-17T01:19:28.999Z,25.00
2018-12-17T01:21:56.781Z,25.93
2018-12-17T01:24:24.791Z,24.43
2018-12-17T01:26:52.295Z,24.40
2018-12-17T01:29:19.828Z,25.87
2018-12-17T01:31:47.403Z,24.63
2018-12-17T01:34:14.933Z,27.40
2018-12-17T01:36:42.431Z,24.80
2018-12-17T01:39:09.959Z,25.57
2018-12-17T01:41:37.450Z,25.40
2018-12-17T01:44:04.976Z,24.60
2018-12-17T01:46:32.482Z,25.10
2018-12-17T01:49:00.015Z,24.83
2018-12-17T01:51:27.512Z,23.17
2018-12-17T01:53:55.020Z,24.70
2018-12-17T01:56:22.562Z,24.93
2018-12-17T01:58:50.168Z,24.70
2018-12-17T02:01:17.699Z,25.60
2018-12-17T02:03:45.273Z,26.70
2018-12-17T02:06:12.794Z,24.87
2018-12-17T02:08:40.472Z,27.33
2018-12-17T02:11:08.072Z,24.50
2018-12-17T02:13:35.567Z,25.20
2018-12-17T02:16:03.096Z,25.50
2018-12-17T02:18:30.591Z,25.30
2018-12-17T02:20:58.123Z,25.00
2018-12-17T02:23:25.623Z,24.07
2018-12-17T02:25:53.150Z,24.00
2018-12-17T02:28:20.642Z,24.23
2018-12-17T02:30:48.171Z,25.57
2018-12-17T02:33:15.662Z,25.30
2018-12-17T02:35:43.194Z,25.00
2018-12-17T02:38:10.688Z,27.30
2018-12-17T02:40:38.215Z,26.20
2018-12-17T02:43:05.717Z,27.47
2018-12-17T02:45:33.244Z,26.87
2018-12-17T02:48:00.735Z,27.07
2018-12-17T02:50:28.264Z,27.77
2018-12-17T02:52:55.759Z,28.13
2018-12-17T02:55:23.260Z,28.27
2018-12-17T02:57:50.787Z,27.67
2018-12-17T03:00:18.316Z,26.43
2018-12-17T03:02:45.810Z,26.93
2018-12-17T03:05:13.423Z,27.90
2018-12-17T03:07:40.927Z,27.33
2018-12-17T03:10:08.875Z,27.20
2018-12-17T03:12:36.398Z,28.10
2018-12-17T03:15:04.994Z,28.03
2018-12-17T03:17:32.491Z,30.27
2018-12-17T03:19:59.990Z,28.73
2018-12-17T03:22:27.512Z,29.60
2018-12-17T03:24:55.039Z,30.07
2018-12-17T03:27:22.536Z,30.77
2018-12-17T03:29:50.115Z,28.30
2018-12-17T03:32:17.645Z,28.27
2018-12-17T03:34:45.193Z,29.03
2018-12-17T03:37:12.696Z,27.50
2018-12-17T03:39:40.207Z,27.83
2018-12-17T03:42:07.821Z,29.67
2018-12-17T03:44:35.351Z,27.63
2018-12-17T03:47:02.855Z,26.93
2018-12-17T03:49:30.351Z,28.00
2018-12-17T03:51:57.885Z,28.53
2018-12-17T03:54:25.428Z,28.93
2018-12-17T03:56:52.918Z,27.80
2018-12-17T03:59:20.420Z,28.70
2018-12-17T04:01:47.942Z,29.60
2018-12-17T04:04:15.475Z,29.80
2018-12-17T04:06:42.981Z,28.93
2018-12-17T04:09:10.487Z,27.63
2018-12-17T04:11:38.020Z,27.60
2018-12-17T04:14:05.554Z,28.80
2018-12-17T04:16:33.056Z,29.13
2018-12-17T04:19:00.556Z,28.50
2018-12-17T04:21:28.083Z,28.97
2018-12-17T04:23:55.615Z,28.67
2018-12-17T04:26:23.139Z,29.57
2018-12-17T04:28:50.634Z,29.20
2018-12-17T04:31:18.160Z,28.50
2018-12-17T04:33:45.686Z,30.47
2018-12-17T04:36:13.214Z,28.47
2018-12-17T04:38:40.710Z,29.83
2018-12-17T04:41:08.239Z,30.57
2018-12-17T04:43:35.736Z,31.40
2018-12-17T04:46:03.272Z,29.67
2018-12-17T04:48:30.774Z,27.77
2018-12-17T04:50:58.298Z,27.97
2018-12-17T04:53:25.805Z,27.00
2018-12-17T04:55:53.335Z,25.87
2018-12-17T04:58:20.842Z,27.50
2018-12-17T05:00:48.367Z,26.70
2018-12-17T05:03:15.876Z,26.00
2018-12-17T05:05:43.409Z,25.67
2018-12-17T05:08:10.911Z,27.70
2018-12-17T05:10:38.445Z,25.57
2018-12-17T05:13:05.944Z,25.20
2018-12-17T05:15:33.483Z,27.27
2018-12-17T05:18:00.985Z,29.77
2018-12-17T05:20:28.516Z,31.67
2018-12-17T05:22:56.015Z,29.70
2018-12-17T05:25:23.554Z,30.40
2018-12-17T05:27:51.056Z,29.67
2018-12-17T05:30:18.599Z,29.13
2018-12-17T05:32:46.120Z,29.20
2018-12-17T05:35:13.756Z,27.50
2018-12-17T05:37:41.263Z,28.40
2018-12-17T05:40:08.872Z,28.43
2018-12-17T05:42:36.383Z,27.13
2018-12-17T05:45:04.964Z,28.20
2018-12-17T05:47:32.463Z,28.07
2018-12-17T05:49:59.995Z,27.67
2018-12-17T05:52:27.500Z,26.17
2018-12-17T05:54:55.022Z,27.57
2018-12-17T05:57:22.556Z,26.27
2018-12-17T05:59:50.055Z,25.00
2018-12-17T06:02:17.589Z,25.53
2018-12-17T06:04:45.086Z,25.00
2018-12-17T06:07:12.610Z,24.20
2018-12-17T06:09:40.187Z,25.13
2018-12-17T06:12:07.718Z,23.87
2018-12-17T06:14:35.211Z,25.53
2018-12-17T06:17:02.744Z,24.50
2018-12-17T06:19:30.239Z,26.43
2018-12-17T06:21:57.763Z,25.17
2018-12-17T06:24:25.264Z,25.90
2018-12-17T06:26:52.782Z,25.07
2018-12-17T06:29:20.275Z,24.90
2018-12-17T06:31:47.802Z,24.70
2018-12-17T06:34:15.294Z,24.67
2018-12-17T06:36:42.820Z,25.33
2018-12-17T06:39:10.319Z,22.97
2018-12-17T06:41:37.851Z,23.90
2018-12-17T06:44:05.343Z,25.30
2018-12-17T06:46:32.875Z,23.73
2018-12-17T06:49:00.375Z,24.07
2018-12-17T06:51:28.183Z,24.17
2018-12-17T06:53:55.679Z,23.20
2018-12-17T06:56:23.204Z,25.07
2018-12-17T06:58:50.720Z,31.87
2018-12-17T07:01:18.243Z,27.00
2018-12-17T07:03:45.744Z,24.57
2018-12-17T07:06:13.274Z,22.57
2018-12-17T07:08:40.771Z,48.27
2018-12-17T07:11:08.267Z,23.17
2018-12-17T07:13:35.792Z,22.50
2018-12-17T07:16:03.291Z,21.10
2018-12-17T07:18:30.811Z,22.10
2018-12-17T07:20:58.313Z,23.00
2018-12-17T07:23:25.843Z,23.03
2018-12-17T07:25:53.333Z,21.13
2018-12-17T07:28:20.864Z,20.20
2018-12-17T07:30:48.358Z,20.00
2018-12-17T07:33:15.924Z,21.73
2018-12-17T07:35:43.494Z,23.93
2018-12-17T07:38:11.026Z,27.70
2018-12-17T07:40:38.527Z,22.50
2018-12-17T07:43:06.055Z,36.93
2018-12-17T07:45:33.555Z,29.90
2018-12-17T07:48:01.097Z,26.83
2018-12-17T07:50:28.599Z,21.70
2018-12-17T07:52:56.135Z,26.90
2018-12-17T07:55:23.635Z,23.43
2018-12-17T07:57:51.159Z,24.07
2018-12-17T08:00:18.660Z,21.97
2018-12-17T08:02:46.183Z,22.47
2018-12-17T08:05:13.687Z,23.10
2018-12-17T08:07:41.215Z,21.40
2018-12-17T08:10:08.793Z,21.50
2018-12-17T08:12:36.319Z,24.27
2018-12-17T08:15:04.675Z,31.67
2018-12-17T08:17:32.290Z,34.57
2018-12-17T08:19:59.787Z,26.77
2018-12-17T08:22:27.663Z,21.80
2018-12-17T08:24:55.186Z,19.30
2018-12-17T08:27:22.684Z,21.20
2018-12-17T08:29:50.207Z,22.00
2018-12-17T08:32:17.707Z,23.73
2018-12-17T08:34:45.239Z,20.60
2018-12-17T08:37:12.741Z,18.60
2018-12-17T08:39:40.262Z,17.23
2018-12-17T08:42:07.760Z,18.60
2018-12-17T08:44:35.279Z,22.20
2018-12-17T08:47:02.776Z,20.43
2018-12-17T08:49:30.303Z,35.27
2018-12-17T08:51:57.803Z,30.37
2018-12-17T08:54:25.338Z,25.60
2018-12-17T08:56:52.843Z,19.17
2018-12-17T08:59:20.379Z,17.47
2018-12-17T09:01:47.954Z,19.00
2018-12-17T09:04:15.456Z,19.93
2018-12-17T09:06:43.069Z,19.63
2018-12-17T09:09:10.575Z,19.20
2018-12-17T09:11:38.099Z,19.67
2018-12-17T09:14:05.595Z,19.50
2018-12-17T09:16:33.119Z,19.77
2018-12-17T09:19:00.610Z,20.20
2018-12-17T09:21:28.517Z,20.03
2018-12-17T09:23:56.015Z,19.10
2018-12-17T09:26:23.551Z,19.57
2018-12-17T09:28:51.043Z,18.83
2018-12-17T09:31:18.540Z,19.03
2018-12-17T09:33:46.063Z,19.17
2018-12-17T09:36:13.555Z,19.93
2018-12-17T09:38:41.084Z,18.73
2018-12-17T09:41:08.579Z,19.50
2018-12-17T09:43:36.108Z,16.87
2018-12-17T09:46:03.755Z,15.97
2018-12-17T09:48:31.279Z,15.87
2018-12-17T09:50:58.777Z,15.73
2018-12-17T09:53:26.299Z,16.37
2018-12-17T09:55:53.796Z,16.07
2018-12-17T09:58:21.319Z,16.03
2018-12-17T10:00:48.815Z,15.43
2018-12-17T10:03:16.339Z,15.03
2018-12-17T10:05:43.839Z,15.00
2018-12-17T10:08:11.367Z,16.97
2018-12-17T10:10:38.871Z,16.57
2018-12-17T10:13:06.411Z,17.10
2018-12-17T10:15:33.912Z,17.20
2018-12-17T10:18:01.431Z,17.10
2018-12-17T10:20:28.932Z,25.27
2018-12-17T10:22:56.459Z,17.87
2018-12-17T10:25:23.964Z,19.20
2018-12-17T10:27:51.491Z,18.20
2018-12-17T10:30:18.991Z,16.70
2018-12-17T10:32:46.524Z,16.77
2018-12-17T10:35:14.035Z,17.60
2018-12-17T10:37:41.567Z,18.77
2018-12-17T10:40:09.520Z,19.13
2018-12-17T10:42:37.047Z,19.20
2018-12-17T10:45:05.808Z,18.40
2018-12-17T10:47:33.335Z,20.50
2018-12-17T10:50:00.978Z,18.50
2018-12-17T10:52:28.511Z,19.10
2018-12-17T10:54:56.011Z,21.20
2018-12-17T10:57:23.521Z,19.07
2018-12-17T10:59:51.065Z,17.47
2018-12-17T11:02:22.495Z,16.40
2018-12-17T11:04:52.000Z,19.40
2018-12-17T11:07:19.490Z,22.43
2018-12-17T11:09:47.011Z,21.77
2018-12-17T11:12:14.511Z,21.23
2018-12-17T11:14:42.114Z,24.53
2018-12-17T11:17:09.613Z,18.20
2018-12-17T11:19:37.147Z,15.43
2018-12-17T11:22:04.647Z,16.30
2018-12-17T11:24:32.175Z,17.17
2018-12-17T11:26:59.666Z,16.03
2018-12-17T11:29:27.187Z,16.43
2018-12-17T11:31:54.683Z,14.30
2018-12-17T11:34:22.214Z,13.20
2018-12-17T11:36:49.711Z,14.43
2018-12-17T11:39:17.210Z,16.73
2018-12-17T11:41:44.747Z,15.53
2018-12-17T11:44:12.248Z,13.93
2018-12-17T11:46:39.776Z,14.30
2018-12-17T11:49:07.279Z,19.30
2018-12-17T11:51:34.814Z,16.90
2018-12-17T11:54:02.315Z,14.50
2018-12-17T11:56:38.471Z,17.73
2018-12-17T11:59:05.962Z,12.67
2018-12-17T12:01:33.455Z,16.87
2018-12-17T12:04:00.979Z,15.30
2018-12-17T12:06:28.471Z,14.20
2018-12-17T12:08:55.993Z,13.23
2018-12-17T12:11:23.562Z,16.60
2018-12-17T12:13:51.087Z,14.40
2018-12-17T12:16:18.586Z,20.33
2018-12-17T12:18:46.110Z,19.33
2018-12-17T12:21:13.615Z,22.30
2018-12-17T12:23:41.139Z,13.03
2018-12-17T12:26:08.639Z,14.70
2018-12-17T12:28:36.167Z,14.57
2018-12-17T12:31:03.739Z,17.50
2018-12-17T12:33:31.267Z,18.37
2018-12-17T12:35:58.758Z,18.20
2018-12-17T12:38:26.289Z,18.83
2018-12-17T12:40:53.788Z,15.10
2018-12-17T12:43:21.323Z,22.80
2018-12-17T12:45:48.823Z,19.53
2018-12-17T12:48:16.349Z,20.23
2018-12-17T12:50:43.847Z,18.73
2018-12-17T12:53:11.371Z,15.47
2018-12-17T12:55:38.872Z,18.97
2018-12-17T12:58:06.483Z,16.27
2018-12-17T13:00:33.974Z,16.67
2018-12-17T13:03:01.476Z,17.90
2018-12-17T13:05:29.004Z,16.93
2018-12-17T13:07:56.499Z,17.13
2018-12-17T13:10:24.023Z,15.87
2018-12-17T13:12:51.514Z,18.10
2018-12-17T13:15:19.039Z,14.53
2018-12-17T13:17:46.539Z,15.20
2018-12-17T13:20:14.070Z,14.83
2018-12-17T13:22:41.563Z,15.47
2018-12-17T13:25:11.146Z,17.47
2018-12-17T13:27:38.643Z,34.90
2018-12-17T13:30:08.028Z,14.60
2018-12-17T13:32:35.519Z,14.97
2018-12-17T13:35:03.219Z,14.50
2018-12-17T13:37:30.724Z,18.10
2018-12-17T13:39:58.247Z,13.60
2018-12-17T13:42:25.740Z,13.90
2018-12-17T13:44:53.516Z,14.10
2018-12-17T13:47:21.044Z,12.70
2018-12-17T13:49:48.546Z,13.53
2018-12-17T13:52:21.723Z,12.53
2018-12-17T13:54:49.216Z,12.57
2018-12-17T13:57:16.748Z,11.53
2018-12-17T13:59:44.242Z,13.47
2018-12-17T14:02:11.931Z,13.00
2018-12-17T14:04:39.423Z,11.70
2018-12-17T14:07:06.988Z,11.37
2018-12-17T14:09:36.556Z,11.23
2018-12-17T14:12:04.056Z,10.93
2018-12-17T14:14:31.578Z,11.50
2018-12-17T14:17:04.794Z,12.53
2018-12-17T14:19:32.906Z,13.23
2018-12-17T14:22:02.388Z,13.73
2018-12-17T14:24:29.915Z,11.03
2018-12-17T14:26:57.412Z,11.83
2018-12-17T14:29:24.931Z,9.90
2018-12-17T14:31:52.431Z,10.57
2018-12-17T14:34:19.951Z,11.77
2018-12-17T14:36:47.442Z,11.00
2018-12-17T14:39:14.963Z,13.23
2018-12-17T14:41:42.459Z,12.83
2018-12-17T14:44:15.750Z,10.93
2018-12-17T14:46:48.948Z,9.47
2018-12-17T14:49:16.467Z,9.93
2018-12-17T14:51:43.969Z,10.17
2018-12-17T14:54:11.492Z,8.90
2018-12-17T14:56:39.062Z,12.40
2018-12-17T14:59:06.591Z,9.00
2018-12-17T15:01:35.892Z,9.13
2018-12-17T15:04:03.706Z,10.50
2018-12-17T15:06:31.195Z,8.27
2018-12-17T15:08:58.719Z,10.30
2018-12-17T15:11:26.211Z,9.73
2018-12-17T15:13:53.736Z,9.40
2018-12-17T15:16:21.237Z,8.87
2018-12-17T15:18:48.769Z,9.17
2018-12-17T15:21:16.277Z,9.10
2018-12-17T15:23:43.798Z,9.80
2018-12-17T15:26:11.424Z,9.90
2018-12-17T15:28:39.058Z,10.27
2018-12-17T15:31:06.579Z,10.47
2018-12-17T15:33:34.070Z,10.27
2018-12-17T15:36:01.599Z,10.80
2018-12-17T15:38:29.107Z,11.10
2018-12-17T15:40:56.636Z,11.17
2018-12-17T15:43:24.135Z,12.47
2018-12-17T15:45:51.667Z,12.87
2018-12-17T15:48:19.167Z,11.43
2018-12-17T15:50:46.697Z,13.13
2018-12-17T15:53:14.199Z,14.73
2018-12-17T15:55:41.727Z,14.80
2018-12-17T15:58:09.236Z,14.10
2018-12-17T16:00:36.843Z,13.60
2018-12-17T16:03:04.338Z,14.33
2018-12-17T16:05:31.868Z,14.00
2018-12-17T16:07:59.369Z,15.67
2018-12-17T16:10:26.900Z,15.60
2018-12-17T16:12:54.401Z,16.20
2018-12-17T16:15:21.923Z,15.07
2018-12-17T16:17:49.424Z,14.60
2018-12-17T16:20:16.959Z,15.10
2018-12-17T16:22:44.488Z,16.30
2018-12-17T16:25:12.351Z,14.37
2018-12-17T16:27:39.879Z,16.90
2018-12-17T16:30:09.036Z,15.53
2018-12-17T16:32:36.563Z,16.30
2018-12-17T16:35:04.628Z,17.20
2018-12-17T16:37:32.161Z,15.70
2018-12-17T16:39:59.663Z,15.07
2018-12-17T16:42:27.192Z,16.60
2018-12-17T16:44:54.692Z,15.33
2018-12-17T16:47:22.218Z,16.43
2018-12-17T16:49:49.711Z,16.87
2018-12-17T16:52:17.234Z,15.70
2018-12-17T16:54:44.729Z,15.27
2018-12-17T16:57:12.255Z,18.30
2018-12-17T16:59:39.754Z,16.37
2018-12-17T17:02:07.275Z,15.50
2018-12-17T17:04:34.771Z,14.50
2018-12-17T17:07:02.299Z,14.60
2018-12-17T17:09:29.801Z,14.60
2018-12-17T17:11:57.333Z,16.00
2018-12-17T17:14:24.835Z,15.20
2018-12-17T17:16:52.434Z,16.70
2018-12-17T17:19:19.935Z,15.77
2018-12-17T17:21:47.548Z,15.30
2018-12-17T17:24:15.051Z,15.60
2018-12-17T17:26:42.587Z,16.10
2018-12-17T17:29:10.083Z,15.50
2018-12-17T17:31:37.587Z,19.83
2018-12-17T17:34:05.119Z,17.00
2018-12-17T17:36:32.623Z,16.50
2018-12-17T17:39:00.232Z,17.70
2018-12-17T17:41:27.723Z,15.80
2018-12-17T17:43:55.247Z,18.80
2018-12-17T17:46:22.747Z,16.87
2018-12-17T17:48:50.276Z,16.13
2018-12-17T17:51:17.775Z,16.13
2018-12-17T17:53:45.303Z,16.33
2018-12-17T17:56:12.795Z,16.87
2018-12-17T17:58:40.395Z,17.30
2018-12-17T18:01:07.963Z,18.20
2018-12-17T18:03:35.491Z,16.30
2018-12-17T18:06:03.068Z,18.50
2018-12-17T18:08:30.596Z,17.93
2018-12-17T18:10:58.096Z,18.63
2018-12-17T18:13:25.618Z,16.17
2018-12-17T18:15:53.117Z,16.80
2018-12-17T18:18:20.640Z,18.07
2018-12-17T18:20:48.139Z,19.60
2018-12-17T18:23:15.667Z,17.70
2018-12-17T18:25:43.159Z,17.03
2018-12-17T18:28:10.690Z,16.43
2018-12-17T18:30:38.183Z,18.00
2018-12-17T18:33:05.674Z,17.60
2018-12-17T18:35:33.195Z,17.90
2018-12-17T18:38:00.696Z,17.67
2018-12-17T18:40:28.218Z,17.13
2018-12-17T18:42:55.711Z,18.67
2018-12-17T18:45:23.236Z,17.20
2018-12-17T18:47:50.735Z,17.57
2018-12-17T18:50:18.263Z,17.40
2018-12-17T18:52:45.759Z,17.13
2018-12-17T18:55:13.723Z,17.03
2018-12-17T18:57:41.215Z,17.90
2018-12-17T19:00:10.470Z,17.40
2018-12-17T19:02:37.967Z,17.47
2018-12-17T19:05:05.652Z,17.77
2018-12-17T19:07:33.148Z,17.10
2018-12-17T19:10:00.675Z,16.70
2018-12-17T19:12:28.175Z,16.50
2018-12-17T19:14:55.698Z,15.67
2018-12-17T19:17:23.192Z,14.57
2018-12-17T19:19:50.719Z,14.90
2018-12-17T19:22:18.216Z,17.53
2018-12-17T19:24:45.748Z,16.30
2018-12-17T19:27:13.239Z,16.60
2018-12-17T19:29:40.763Z,16.23
2018-12-17T19:32:08.259Z,16.27
2018-12-17T19:34:35.797Z,16.37
2018-12-17T19:37:03.299Z,17.40
2018-12-17T19:39:30.791Z,17.70
2018-12-17T19:41:58.319Z,17.00
2018-12-17T19:44:25.819Z,18.10
2018-12-17T19:46:53.347Z,18.60
2018-12-17T19:49:20.848Z,15.77
2018-12-17T19:51:48.383Z,16.03
2018-12-17T19:54:15.879Z,17.13
2018-12-17T19:56:43.399Z,15.83
2018-12-17T19:59:10.890Z,14.73
2018-12-17T20:01:38.414Z,16.37
2018-12-17T20:04:05.906Z,15.87
2018-12-17T20:06:33.427Z,16.73
2018-12-17T20:09:00.924Z,17.50
2018-12-17T20:11:28.457Z,16.40
2018-12-17T20:13:55.955Z,17.23
2018-12-17T20:16:23.478Z,16.27
2018-12-17T20:18:50.991Z,16.20
2018-12-17T20:21:18.520Z,18.13
2018-12-17T20:23:46.018Z,18.40
2018-12-17T20:26:13.547Z,17.03
2018-12-17T20:28:41.051Z,17.40
2018-12-17T20:31:08.572Z,18.03
2018-12-17T20:33:36.332Z,19.03
2018-12-17T20:36:04.034Z,18.60
2018-12-17T20:38:31.535Z,18.50
2018-12-17T20:40:59.064Z,18.70
2018-12-17T20:43:26.574Z,17.50
2018-12-17T20:45:54.107Z,17.97
2018-12-17T20:48:21.603Z,18.20
2018-12-17T20:50:49.123Z,18.27
2018-12-17T20:53:16.616Z,19.50
2018-12-17T20:55:44.152Z,18.30
2018-12-17T20:58:11.655Z,17.13
2018-12-17T21:00:39.181Z,18.50
2018-12-17T21:03:06.683Z,18.10
2018-12-17T21:05:34.202Z,18.53
2018-12-17T21:08:01.699Z,17.80
2018-12-17T21:10:29.235Z,19.17
2018-12-17T21:12:56.726Z,18.10
2018-12-17T21:15:24.223Z,19.27
2018-12-17T21:17:52.719Z,19.87
2018-12-17T21:20:20.219Z,19.30
2018-12-17T21:22:47.747Z,18.47
2018-12-17T21:25:15.248Z,17.33
2018-12-17T21:27:42.775Z,16.57
2018-12-17T21:30:10.428Z,17.67
2018-12-17T21:32:37.961Z,18.33
2018-12-17T21:35:06.015Z,18.77
2018-12-17T21:37:33.544Z,16.83
2018-12-17T21:40:01.043Z,17.90
2018-12-17T21:42:28.648Z,17.27
2018-12-17T21:44:56.152Z,18.00
2018-12-17T21:47:23.676Z,17.63
2018-12-17T21:49:51.181Z,19.17
2018-12-17T21:52:18.715Z,18.70
2018-12-17T21:54:46.216Z,17.67
2018-12-17T21:57:13.743Z,19.17
2018-12-17T21:59:41.239Z,18.60
2018-12-17T22:02:08.761Z,19.53
2018-12-17T22:04:36.264Z,19.10
2018-12-17T22:07:03.871Z,19.80
2018-12-17T22:09:31.371Z,19.83
2018-12-17T22:11:58.890Z,18.80
2018-12-17T22:14:26.393Z,19.43
2018-12-17T22:16:53.919Z,20.27
2018-12-17T22:19:21.415Z,20.70
2018-12-17T22:21:48.939Z,19.70
2018-12-17T22:24:16.435Z,18.90
2018-12-17T22:26:43.955Z,19.20
2018-12-17T22:29:11.451Z,18.57
2018-12-17T22:31:38.973Z,18.20
2018-12-17T22:34:06.471Z,19.30
2018-12-17T22:36:34.000Z,19.80
2018-12-17T22:39:01.495Z,18.50
2018-12-17T22:41:29.029Z,19.30
2018-12-17T22:43:56.521Z,17.80
2018-12-17T22:46:24.024Z,18.97
2018-12-17T22:48:51.547Z,18.83
2018-12-17T22:51:19.039Z,19.37
2018-12-17T22:53:46.568Z,18.57
2018-12-17T22:56:14.064Z,18.57
2018-12-17T22:58:42.503Z,19.10
2018-12-17T23:01:10.308Z,19.53
2018-12-17T23:03:37.837Z,19.50
2018-12-17T23:06:05.336Z,19.30
2018-12-17T23:08:33.511Z,18.30
2018-12-17T23:11:13.492Z,19.70
2018-12-17T23:13:53.031Z,18.70
2018-12-17T23:16:32.525Z,21.90
2018-12-17T23:18:59.644Z,22.10
2018-12-17T23:21:27.315Z,21.03
2018-12-17T23:23:54.958Z,20.67
2018-12-17T23:26:22.451Z,20.37
2018-12-17T23:28:50.055Z,19.90
2018-12-17T23:31:17.547Z,21.40
2018-12-17T23:33:45.070Z,20.47
2018-12-17T23:36:12.568Z,20.30
2018-12-17T23:38:40.090Z,21.53
2018-12-17T23:41:07.595Z,19.93
2018-12-17T23:43:35.199Z,20.73
2018-12-17T23:46:02.775Z,20.40
2018-12-17T23:48:30.385Z,20.63
2018-12-17T23:50:57.883Z,21.47
2018-12-17T23:53:25.407Z,20.97
2018-12-17T23:55:52.903Z,21.00
2018-12-17T23:58:20.427Z,20.57
